Date,TemperatureHighF,TemperatureAvgF,TemperatureLowF,DewpointHighF,DewpointAvgF,DewpointLowF,HumidityHigh,HumidityAvg,HumidityLow,PressureMaxIn,PressureMinIn,WindSpeedMaxMPH,WindSpeedAvgMPH,GustSpeedMaxMPH,PrecipitationSumIn
2013-2-1,31,29,27,29,27,26,94,94,93,29.94,29.63,13,4,13,0.00
2013-2-2,35,31,28,33,30,27,94,93,92,29.63,29.30,10,4,10,0.01
2013-2-3,39,32,25,37,30,23,93,92,90,29.45,29.20,10,2,10,0.03
2013-2-4,37,30,20,35,28,18,94,92,90,29.61,29.45,9,1,9,0.02
2013-2-5,32,24,18,30,22,15,93,91,89,29.62,29.49,5,1,5,0.01
2013-2-6,30,26,20,28,24,17,93,92,90,29.62,29.45,4,0,4,0.00
2013-2-7,31,27,22,30,25,20,93,92,91,29.58,29.23,7,1,7,0.00
2013-2-8,32,28,25,30,26,23,93,92,91,29.72,29.36,2,0,2,0.00
2013-2-9,41,33,28,37,31,27,94,91,82,29.65,29.19,14,2,14,0.17
2013-2-12,28,26,23,25,23,20,91,87,84,29.72,29.66,8,0,8,0.00
2013-2-13,34,26,20,30,24,17,91,89,85,29.79,29.57,11,2,11,0.01
2013-2-14,35,32,26,30,27,23,89,82,74,29.57,29.19,24,5,24,0.00
2013-2-15,33,25,10,26,20,5,91,83,66,29.90,29.47,13,2,13,0.00
2013-2-16,28,17,5,20,12,0,88,80,64,29.98,29.70,18,3,18,0.00
2013-2-17,27,23,21,24,20,18,90,88,85,29.77,29.55,20,5,20,0.00
2013-2-18,24,9,-4,18,4,-8,88,82,71,29.89,29.76,7,1,7,0.02
2013-2-19,18,11,1,14,7,-3,88,83,77,29.83,29.21,16,4,16,0.00
2013-2-20,32,23,17,25,18,14,88,84,75,29.22,29.04,17,3,17,0.00
2013-2-21,35,26,17,30,22,14,89,86,80,29.23,29.09,6,1,6,0.00
2013-2-24,33,28,18,29,24,15,88,86,83,29.58,29.44,10,3,10,0.00
2013-2-25,36,24,8,31,20,4,91,85,78,29.61,29.49,13,4,13,0.01
2013-2-26,42,32,27,27,22,18,82,69,52,29.50,29.23,17,6,17,0.03
2013-2-27,41,30,21,30,21,14,82,72,64,29.24,29.15,11,4,11,0.01
2013-2-28,39,30,26,31,25,21,87,80,68,29.34,29.24,10,3,10,0.00